Denali National Park, AK

12:25 AM AKDT on June 30, 2015 (GMT -0800)
Minchumina | | Change Station
CLOSE
Current Station
Airport
Location: Minchumina,
Elevation: 702 ft
Nearby Weather Stations

Elev 702 ft 63.89 °N, 152.30 °W | Updated 9 minutes ago

Mostly Cloudy
Mostly Cloudy
61 °F
Feels Like 61 °F
N
0
Wind Variable Wind from North

Today
High -- | Low -- °F
--% Chance of Precip.
Yesterday
High -- | Low -- °F
Precip. -- in
3:51 AM 0:22 AM
Waxing Gibbous, 96% visible
Pressure 29.88 in
Visibility 1.5 miles
Clouds Mostly Cloudy 600 ft
Mostly Cloudy 1100 ft
Mostly Cloudy 12000 ft
Dew Point 45 °F
Humidity 55%
Rainfall 0.00 in
Snow Depth Not available.
UV 0 out of 12
Pollen Not available.
Air Quality Not available.
Flu Activity Sporadic
METAR PAMH 300816Z AUTO 00000KT 1 1/2SM BKN006 BKN011 BKN120 16/07 A2988 RMK AO1

More Conditions Fewer Conditions

Pressure 29.88 in
Visibility 1.5 miles
Clouds Mostly Cloudy 600 ft
Mostly Cloudy 1100 ft
Mostly Cloudy 12000 ft
Dew Point 45 °F
Humidity 55%
Rainfall 0.00 in
Snow Depth Not available.
UV 0 out of 12
Pollen Not available.
Air Quality Not available.
Flu Activity Sporadic
METAR PAMH 300816Z AUTO 00000KT 1 1/2SM BKN006 BKN011 BKN120 16/07 A2988 RMK AO1

More Conditions Fewer Conditions

10-Day Weather Forecast

×

Almanac

Astronomy

Jun. 30, 2015 Rise Set
Actual Time
Civil Twilight
Nautical Twilight
Astronomical Twilight
Moon
Length of Visible Light
Length of Day
Tomorrow will be .
, % of the Moon is Illuminated

Today's Extremes

State Highs State Lows

Community

WunderPhotos

Upload Photos

1,833,976 photos uploaded!

WunderBlogs® & News

Nearby

Air Quality

  Air Quality AQ Index Pollutant
Not available.

Snow Depth

Station Depth Elevation

Earthquake Activity

City Distance Mag. Time & Date
Minimum magnitude displayed is 2.5.

Coastal Water Temperatures

Place Temperature

Stations

Nearby Weather Stations

Station Location Temp. Windchill Dew Point Humidity Wind Precip. Elev Updated Type